createdAt,value
2022-07-26T00:00:14.256Z,9.88
2022-07-26T00:02:48.185Z,10.32
2022-07-26T00:05:18.169Z,10.40
2022-07-26T00:07:47.321Z,9.23
2022-07-26T00:10:14.810Z,10.07
2022-07-26T00:12:45.595Z,9.43
2022-07-26T00:15:12.527Z,9.98
2022-07-26T00:17:39.526Z,10.00
2022-07-26T00:20:07.049Z,10.13
2022-07-26T00:22:34.341Z,10.50
2022-07-26T00:25:06.450Z,10.85
2022-07-26T00:27:37.185Z,10.35
2022-07-26T00:30:08.769Z,11.18
2022-07-26T00:32:36.130Z,10.65
2022-07-26T00:35:03.380Z,11.55
2022-07-26T00:37:30.239Z,10.57
2022-07-26T00:39:57.092Z,10.85
2022-07-26T00:42:23.985Z,10.80
2022-07-26T00:44:50.827Z,12.18
2022-07-26T00:47:17.757Z,11.98
2022-07-26T00:49:45.285Z,12.32
2022-07-26T00:52:12.572Z,11.88
2022-07-26T00:54:45.638Z,12.48
2022-07-26T00:57:14.042Z,12.95
2022-07-26T00:59:42.237Z,13.10
2022-07-26T01:02:23.335Z,12.88
2022-07-26T01:04:50.170Z,13.20
2022-07-26T01:07:17.393Z,13.27
2022-07-26T01:09:44.938Z,15.13
2022-07-26T01:12:12.784Z,14.15
2022-07-26T01:14:44.237Z,14.25
2022-07-26T01:17:12.158Z,14.85
2022-07-26T01:19:39.092Z,14.25
2022-07-26T01:22:08.811Z,14.48
2022-07-26T01:24:38.143Z,15.35
2022-07-26T01:27:05.067Z,14.30
2022-07-26T01:29:36.186Z,16.05
2022-07-26T01:32:05.023Z,14.88
2022-07-26T01:34:31.968Z,14.02
2022-07-26T01:36:58.890Z,15.02
2022-07-26T01:39:25.649Z,15.25
2022-07-26T01:41:53.051Z,14.52
2022-07-26T01:44:19.835Z,15.57
2022-07-26T01:46:46.641Z,16.35
2022-07-26T01:49:13.616Z,17.00
2022-07-26T01:51:40.523Z,16.30
2022-07-26T01:54:07.716Z,16.85
2022-07-26T01:56:34.917Z,16.60
2022-07-26T01:59:01.901Z,15.93
2022-07-26T02:01:39.736Z,17.08
2022-07-26T02:04:09.145Z,16.38
2022-07-26T02:06:37.326Z,17.38
2022-07-26T02:09:07.558Z,16.83
2022-07-26T02:11:37.495Z,18.50
2022-07-26T02:14:04.642Z,19.15
2022-07-26T02:16:31.656Z,19.27
2022-07-26T02:18:58.478Z,20.70
2022-07-26T02:21:25.401Z,20.38
2022-07-26T02:23:52.245Z,20.30
2022-07-26T02:26:18.961Z,19.70
2022-07-26T02:28:45.891Z,20.85
2022-07-26T02:31:15.526Z,19.95
2022-07-26T02:33:42.633Z,21.20
2022-07-26T02:36:09.401Z,22.00
2022-07-26T02:38:36.181Z,23.15
2022-07-26T02:41:03.009Z,23.45
2022-07-26T02:43:31.700Z,24.02
2022-07-26T02:46:01.066Z,21.70
2022-07-26T02:48:32.251Z,21.17
2022-07-26T02:50:59.400Z,19.08
2022-07-26T02:53:26.224Z,15.05
2022-07-26T02:55:52.947Z,12.82
2022-07-26T02:58:25.032Z,11.20
2022-07-26T03:00:51.930Z,9.07
2022-07-26T03:03:18.759Z,7.85
2022-07-26T03:05:45.671Z,6.03
2022-07-26T03:08:12.554Z,6.03
2022-07-26T03:10:40.313Z,5.97
2022-07-26T03:13:07.327Z,5.55
2022-07-26T03:15:34.263Z,4.75
2022-07-26T03:18:01.377Z,5.13
2022-07-26T03:20:28.264Z,4.53
2022-07-26T03:22:55.112Z,5.05
2022-07-26T03:25:22.076Z,4.72
2022-07-26T03:27:48.943Z,4.88
2022-07-26T03:30:16.386Z,4.20
2022-07-26T03:32:51.870Z,4.50
2022-07-26T03:35:18.727Z,3.85
2022-07-26T03:37:46.754Z,4.25
2022-07-26T03:40:15.832Z,4.38
2022-07-26T03:42:42.705Z,4.00
2022-07-26T03:45:10.020Z,3.45
2022-07-26T03:47:37.396Z,3.72
2022-07-26T03:50:05.986Z,3.45
2022-07-26T03:52:32.938Z,4.13
2022-07-26T03:54:59.921Z,3.35
2022-07-26T03:57:28.233Z,3.60
2022-07-26T03:59:55.977Z,3.67
2022-07-26T04:02:22.891Z,3.28
2022-07-26T04:04:49.770Z,2.90
2022-07-26T04:07:16.611Z,3.38
2022-07-26T04:09:43.455Z,2.80
2022-07-26T04:12:10.265Z,2.90
2022-07-26T04:14:37.137Z,2.67
2022-07-26T04:17:04.089Z,2.40
2022-07-26T04:19:30.993Z,2.35
2022-07-26T04:21:57.773Z,2.08
2022-07-26T04:24:25.660Z,1.70
2022-07-26T04:26:52.807Z,2.00
2022-07-26T04:29:19.578Z,1.83
2022-07-26T04:31:46.372Z,2.15
2022-07-26T04:34:13.230Z,1.70
2022-07-26T04:36:40.003Z,1.75
2022-07-26T04:39:06.944Z,1.58
2022-07-26T04:41:33.737Z,2.20
2022-07-26T04:44:00.550Z,1.50
2022-07-26T04:46:27.488Z,1.50
2022-07-26T04:48:54.416Z,1.55
2022-07-26T04:51:21.354Z,1.70
2022-07-26T04:53:48.268Z,1.40
2022-07-26T04:56:15.087Z,1.10
2022-07-26T04:58:41.864Z,1.65
2022-07-26T05:01:10.384Z,1.27
2022-07-26T05:03:38.420Z,1.02
2022-07-26T05:06:05.452Z,1.50
2022-07-26T05:08:32.263Z,1.40
2022-07-26T05:10:59.103Z,1.20
2022-07-26T05:13:29.690Z,1.23
2022-07-26T05:15:59.465Z,1.30
2022-07-26T05:18:26.945Z,1.10
2022-07-26T05:20:56.399Z,0.93
2022-07-26T05:23:23.237Z,1.20
2022-07-26T05:25:49.975Z,1.10
2022-07-26T05:28:16.825Z,0.98
2022-07-26T05:30:43.847Z,0.90
2022-07-26T05:33:10.676Z,0.95
2022-07-26T05:35:43.141Z,0.80
2022-07-26T05:38:09.958Z,0.90
2022-07-26T05:40:36.873Z,1.08
2022-07-26T05:43:04.782Z,1.15
2022-07-26T05:45:31.874Z,1.08
2022-07-26T05:47:58.691Z,1.17
2022-07-26T05:50:25.573Z,1.15
2022-07-26T05:52:52.339Z,0.90
2022-07-26T05:55:19.319Z,1.13
2022-07-26T05:57:49.611Z,0.88
2022-07-26T06:00:17.271Z,1.00
2022-07-26T06:02:44.151Z,0.90
2022-07-26T06:05:11.088Z,0.80
2022-07-26T06:07:38.945Z,0.90
2022-07-26T06:10:06.406Z,0.88
2022-07-26T06:12:33.303Z,1.08
2022-07-26T06:15:00.168Z,0.88
2022-07-26T06:17:30.368Z,1.17
2022-07-26T06:19:58.618Z,0.80
2022-07-26T06:22:25.756Z,1.10
2022-07-26T06:24:52.703Z,0.75
2022-07-26T06:27:19.598Z,1.00
2022-07-26T06:29:48.547Z,1.10
2022-07-26T06:32:15.496Z,0.73
2022-07-26T06:34:42.462Z,0.98
2022-07-26T06:37:09.304Z,0.90
2022-07-26T06:39:36.174Z,0.75
2022-07-26T06:42:03.153Z,0.70
2022-07-26T06:44:30.064Z,0.60
2022-07-26T06:46:56.921Z,0.95
2022-07-26T06:49:23.781Z,0.60
2022-07-26T06:51:50.606Z,0.85
2022-07-26T06:54:17.564Z,0.80
2022-07-26T06:56:44.715Z,0.82
2022-07-26T06:59:11.572Z,0.73
2022-07-26T07:01:57.811Z,1.00
2022-07-26T07:04:25.339Z,0.80
2022-07-26T07:06:52.360Z,0.73
2022-07-26T07:09:20.191Z,0.80
2022-07-26T07:11:51.878Z,0.80
2022-07-26T07:14:25.595Z,0.70
2022-07-26T07:16:52.511Z,0.82
2022-07-26T07:19:19.790Z,1.10
2022-07-26T07:21:46.793Z,0.82
2022-07-26T07:24:14.037Z,0.50
2022-07-26T07:26:41.766Z,0.70
2022-07-26T07:29:12.744Z,0.70
2022-07-26T07:31:48.534Z,0.80
2022-07-26T07:34:18.149Z,0.75
2022-07-26T07:36:47.108Z,0.63
2022-07-26T07:39:17.595Z,0.80
2022-07-26T07:41:47.700Z,0.93
2022-07-26T07:44:14.699Z,0.90
2022-07-26T07:46:41.657Z,0.70
2022-07-26T07:49:09.036Z,0.90
2022-07-26T07:51:36.490Z,1.00
2022-07-26T07:54:05.935Z,0.60
2022-07-26T07:56:33.891Z,0.70
2022-07-26T07:59:01.255Z,0.70
2022-07-26T08:01:39.343Z,0.50
2022-07-26T08:04:06.831Z,0.52
2022-07-26T08:06:33.599Z,1.10
2022-07-26T08:09:00.580Z,0.82
2022-07-26T08:11:30.029Z,0.82
2022-07-26T08:13:57.168Z,0.73
2022-07-26T08:16:24.834Z,0.70
2022-07-26T08:19:08.664Z,0.70
2022-07-26T08:21:35.945Z,0.70
2022-07-26T08:24:02.911Z,0.68
2022-07-26T08:26:29.918Z,0.60
2022-07-26T08:28:59.737Z,0.60
2022-07-26T08:31:28.720Z,0.60
2022-07-26T08:33:56.067Z,0.60
2022-07-26T08:36:23.231Z,0.50
2022-07-26T08:38:50.066Z,0.50
2022-07-26T08:41:18.195Z,0.70
2022-07-26T08:43:51.614Z,0.60
2022-07-26T08:46:27.705Z,0.68
2022-07-26T08:48:58.300Z,0.60
2022-07-26T08:51:26.225Z,0.70
2022-07-26T08:54:04.258Z,0.68
2022-07-26T08:56:35.023Z,0.73
2022-07-26T08:59:07.164Z,0.88
2022-07-26T09:01:34.489Z,0.73
2022-07-26T09:04:41.439Z,0.88
2022-07-26T09:07:11.759Z,0.95
2022-07-26T09:09:55.835Z,0.70
2022-07-26T09:12:24.557Z,0.80
2022-07-26T09:14:51.639Z,0.65
2022-07-26T09:17:21.322Z,0.65
2022-07-26T09:20:13.108Z,0.80
2022-07-26T09:25:24.462Z,0.60
2022-07-26T09:27:52.308Z,0.70
2022-07-26T09:30:19.422Z,0.80
2022-07-26T09:33:05.196Z,0.50
2022-07-26T09:35:52.217Z,0.60
2022-07-26T09:38:19.983Z,0.65
2022-07-26T09:40:51.164Z,0.70
2022-07-26T09:43:19.742Z,0.60
2022-07-26T09:46:07.361Z,0.60
2022-07-26T09:49:07.010Z,0.50
2022-07-26T09:51:40.920Z,0.50
2022-07-26T09:54:10.081Z,0.60
2022-07-26T09:56:47.713Z,0.63
2022-07-26T09:59:17.345Z,0.77
2022-07-26T10:01:45.674Z,0.50
2022-07-26T10:04:13.829Z,1.23
2022-07-26T10:06:41.840Z,0.70
2022-07-26T10:09:09.895Z,0.60
2022-07-26T10:11:58.198Z,0.57
2022-07-26T10:14:33.817Z,0.60
2022-07-26T10:17:02.262Z,0.70
2022-07-26T10:19:41.710Z,0.70
2022-07-26T10:22:27.148Z,0.50
2022-07-26T10:24:58.164Z,0.60
2022-07-26T10:27:42.347Z,0.60
2022-07-26T10:30:18.426Z,0.68
2022-07-26T10:32:51.603Z,0.60
2022-07-26T10:35:36.584Z,0.70
2022-07-26T10:38:06.158Z,0.70
2022-07-26T10:40:33.644Z,0.70
2022-07-26T10:46:13.477Z,0.95
2022-07-26T10:49:01.632Z,2.72
2022-07-26T10:51:37.965Z,17.05
2022-07-26T10:54:08.731Z,3.30
2022-07-26T10:56:36.347Z,1.00
2022-07-26T10:59:04.265Z,0.90
2022-07-26T11:01:43.424Z,1.00
2022-07-26T11:04:28.544Z,4.72
2022-07-26T11:07:00.835Z,0.80
2022-07-26T11:09:34.427Z,1.00
2022-07-26T11:12:23.086Z,1.25
2022-07-26T11:14:50.797Z,1.00
2022-07-26T11:17:28.914Z,1.35
2022-07-26T11:19:56.797Z,1.00
2022-07-26T11:22:32.232Z,0.95
2022-07-26T11:24:59.104Z,1.00
2022-07-26T11:27:25.887Z,2.20
2022-07-26T11:29:52.752Z,10.43
2022-07-26T11:32:25.305Z,3.42
2022-07-26T11:35:00.396Z,3.50
2022-07-26T11:37:27.652Z,12.55
2022-07-26T11:39:54.472Z,4.60
2022-07-26T11:42:22.220Z,1.60
2022-07-26T11:44:50.163Z,1.08
2022-07-26T11:47:20.248Z,1.27
2022-07-26T11:49:59.700Z,1.00
2022-07-26T11:52:35.325Z,1.05
2022-07-26T11:55:02.064Z,0.95
2022-07-26T11:57:31.687Z,5.10
2022-07-26T12:00:00.069Z,1.80
2022-07-26T12:02:28.025Z,0.77
2022-07-26T12:05:20.238Z,0.88
2022-07-26T12:07:59.543Z,0.88
2022-07-26T12:10:27.651Z,0.90
2022-07-26T12:13:13.825Z,0.98
2022-07-26T12:15:45.885Z,0.77
2022-07-26T12:18:24.550Z,0.80
2022-07-26T12:21:06.727Z,0.93
2022-07-26T12:23:45.736Z,0.80
2022-07-26T12:26:26.578Z,0.70
2022-07-26T12:31:29.343Z,0.73
2022-07-26T12:33:56.907Z,0.60
2022-07-26T12:36:27.567Z,0.77
2022-07-26T12:39:00.809Z,0.70
2022-07-26T12:41:39.644Z,0.70
2022-07-26T12:44:08.660Z,0.88
2022-07-26T12:46:36.944Z,0.80
2022-07-26T12:49:04.742Z,0.60
2022-07-26T12:51:31.835Z,0.80
2022-07-26T12:53:58.885Z,0.80
2022-07-26T12:56:25.836Z,1.00
2022-07-26T12:58:54.170Z,1.08
2022-07-26T13:01:21.536Z,0.80
2022-07-26T13:03:48.423Z,0.98
2022-07-26T13:06:15.237Z,0.70
2022-07-26T13:08:42.099Z,0.90
2022-07-26T13:11:09.202Z,0.85
2022-07-26T13:13:36.080Z,0.70
2022-07-26T13:16:06.646Z,1.00
2022-07-26T13:18:36.460Z,0.77
2022-07-26T13:21:03.311Z,0.80
2022-07-26T13:23:30.220Z,0.73
2022-07-26T13:25:57.155Z,0.90
2022-07-26T13:28:24.591Z,0.88
2022-07-26T13:30:51.530Z,0.98
2022-07-26T13:33:18.405Z,0.90
2022-07-26T13:35:45.221Z,1.20
2022-07-26T13:40:45.999Z,1.05
2022-07-26T13:43:12.721Z,0.70
2022-07-26T13:45:39.571Z,0.90
2022-07-26T13:48:07.120Z,0.70
2022-07-26T13:50:33.987Z,0.73
2022-07-26T13:53:00.777Z,0.80
2022-07-26T13:55:27.621Z,0.80
2022-07-26T13:57:56.883Z,1.13
2022-07-26T14:00:27.308Z,1.27
2022-07-26T14:02:56.905Z,1.20
2022-07-26T14:05:24.638Z,1.98
2022-07-26T14:07:51.759Z,1.60
2022-07-26T14:10:19.778Z,1.45
2022-07-26T14:12:47.914Z,0.90
2022-07-26T14:15:21.205Z,1.17
2022-07-26T14:17:49.367Z,0.82
2022-07-26T14:20:19.347Z,1.60
2022-07-26T14:22:47.300Z,1.08
2022-07-26T14:25:14.757Z,1.20
2022-07-26T14:27:41.609Z,1.40
2022-07-26T14:30:08.752Z,1.08
2022-07-26T14:32:35.683Z,1.10
2022-07-26T14:35:02.993Z,1.20
2022-07-26T14:37:44.121Z,1.60
2022-07-26T14:40:17.460Z,1.38
2022-07-26T14:45:13.094Z,1.80
2022-07-26T14:47:40.114Z,1.15
2022-07-26T14:50:08.626Z,1.10
2022-07-26T14:52:45.435Z,1.20
2022-07-26T14:55:12.796Z,0.98
2022-07-26T14:57:40.447Z,0.90
2022-07-26T15:00:16.738Z,1.15
2022-07-26T15:02:45.733Z,1.10
2022-07-26T15:05:14.435Z,1.33
2022-07-26T15:07:42.192Z,1.50
2022-07-26T15:10:11.071Z,1.50
2022-07-26T15:12:38.698Z,1.27
2022-07-26T15:15:06.747Z,1.30
2022-07-26T15:17:33.546Z,1.52
2022-07-26T15:20:00.575Z,1.20
2022-07-26T16:26:38.353Z,2.33
2022-07-26T16:29:06.009Z,2.25
2022-07-26T16:31:33.299Z,2.30
2022-07-26T16:34:00.282Z,2.28
2022-07-26T16:36:27.515Z,2.00
2022-07-26T16:38:54.411Z,2.25
2022-07-26T16:41:21.275Z,2.00
2022-07-26T16:43:48.195Z,1.90
2022-07-26T16:46:15.087Z,1.90
2022-07-26T16:48:42.007Z,2.65
2022-07-26T16:51:09.079Z,2.25
2022-07-26T16:53:35.876Z,2.28
2022-07-26T16:56:02.671Z,2.00
2022-07-26T16:58:29.591Z,1.98
2022-07-26T17:00:56.505Z,2.78
2022-07-26T17:03:23.857Z,1.77
2022-07-26T17:05:50.800Z,1.75
2022-07-26T17:08:17.791Z,2.20
2022-07-26T17:10:44.695Z,1.85
2022-07-26T17:13:11.683Z,1.70
2022-07-26T17:15:38.570Z,1.88
2022-07-26T17:18:05.564Z,1.83
2022-07-26T17:20:32.405Z,1.80
2022-07-26T17:22:59.195Z,2.05
2022-07-26T17:25:25.949Z,1.83
2022-07-26T17:27:53.136Z,2.20
2022-07-26T17:30:19.978Z,2.25
2022-07-26T17:32:46.825Z,1.90
2022-07-26T17:35:15.019Z,2.08
2022-07-26T17:37:41.786Z,1.67
2022-07-26T17:40:11.004Z,2.17
2022-07-26T17:42:38.554Z,2.03
2022-07-26T17:45:06.585Z,2.20
2022-07-26T17:47:33.345Z,2.30
2022-07-26T17:52:53.429Z,2.75
2022-07-26T17:55:20.970Z,2.75
2022-07-26T17:57:49.723Z,2.65
2022-07-26T18:00:19.260Z,3.35
2022-07-26T18:02:46.803Z,3.58
2022-07-26T18:05:13.770Z,3.10
2022-07-26T18:07:40.884Z,3.80
2022-07-26T18:10:08.711Z,13.00
2022-07-26T18:12:35.595Z,11.13
2022-07-26T18:15:02.369Z,9.60
2022-07-26T18:17:29.189Z,9.25
2022-07-26T18:19:56.027Z,8.18
2022-07-26T18:22:23.426Z,8.70
2022-07-26T18:24:50.319Z,8.48
2022-07-26T18:27:17.352Z,9.15
2022-07-26T18:29:44.219Z,8.55
2022-07-26T18:32:11.119Z,9.18
2022-07-26T18:34:37.935Z,8.73
2022-07-26T18:37:05.267Z,8.60
2022-07-26T18:39:32.815Z,8.27
2022-07-26T18:42:01.205Z,7.97
2022-07-26T18:44:28.029Z,7.25
2022-07-26T18:46:56.243Z,6.82
2022-07-26T18:49:23.778Z,5.97
2022-07-26T18:52:00.707Z,5.60
2022-07-26T18:54:32.955Z,6.38
2022-07-26T18:56:59.741Z,6.18
2022-07-26T18:59:26.667Z,6.57
2022-07-26T19:01:53.536Z,6.95
2022-07-26T19:04:21.666Z,6.10
2022-07-26T19:06:49.747Z,6.30
2022-07-26T19:09:16.694Z,5.90
2022-07-26T19:11:45.828Z,6.25
2022-07-26T19:14:13.395Z,4.95
2022-07-26T19:16:40.193Z,4.90
2022-07-26T19:19:06.994Z,5.43
2022-07-26T19:21:33.862Z,5.30
2022-07-26T19:24:00.581Z,6.32
2022-07-26T19:26:27.655Z,5.80
2022-07-26T19:28:54.629Z,6.35
2022-07-26T19:31:22.313Z,6.10
2022-07-26T19:33:50.365Z,6.40
2022-07-26T19:36:25.303Z,6.30
2022-07-26T19:38:53.407Z,6.35
2022-07-26T19:41:20.214Z,6.43
2022-07-26T19:43:47.059Z,7.18
2022-07-26T19:46:14.002Z,6.70
2022-07-26T19:48:40.997Z,7.53
2022-07-26T19:51:07.953Z,6.40
2022-07-26T19:53:34.804Z,6.13
2022-07-26T19:56:01.697Z,5.50
2022-07-26T19:58:30.519Z,5.75
2022-07-26T20:00:57.356Z,5.75
2022-07-26T20:03:24.237Z,5.70
2022-07-26T20:05:53.464Z,5.93
2022-07-26T20:08:20.580Z,6.95
2022-07-26T20:10:47.420Z,5.88
2022-07-26T20:13:14.231Z,6.90
2022-07-26T20:15:40.958Z,7.20
2022-07-26T20:18:07.700Z,7.30
2022-07-26T20:20:34.429Z,7.72
2022-07-26T20:23:02.244Z,7.00
2022-07-26T20:25:29.041Z,6.93
2022-07-26T20:27:55.842Z,7.20
2022-07-26T20:30:22.737Z,6.60
2022-07-26T20:32:49.555Z,7.97
2022-07-26T20:35:16.688Z,7.50
2022-07-26T20:37:43.600Z,8.48
2022-07-26T20:40:12.559Z,9.52
2022-07-26T20:42:44.241Z,10.60
2022-07-26T20:45:12.975Z,11.23
2022-07-26T20:47:40.532Z,11.73
2022-07-26T20:50:09.595Z,10.50
2022-07-26T20:52:36.583Z,8.45
2022-07-26T20:55:04.175Z,8.70
2022-07-26T20:57:31.042Z,7.72
2022-07-26T20:59:58.236Z,9.43
2022-07-26T21:02:25.100Z,10.38
2022-07-26T21:04:51.929Z,9.98
2022-07-26T21:07:19.024Z,10.13
2022-07-26T21:09:45.834Z,8.07
2022-07-26T21:12:12.656Z,6.88
2022-07-26T21:14:39.417Z,6.30
2022-07-26T21:17:11.333Z,6.57
2022-07-26T21:19:38.732Z,6.90
2022-07-26T21:22:05.618Z,7.07
2022-07-26T21:24:32.449Z,7.38
2022-07-26T21:26:59.175Z,7.60
2022-07-26T21:29:25.928Z,7.95
2022-07-26T21:31:52.752Z,8.50
2022-07-26T21:34:19.813Z,8.05
2022-07-26T21:36:46.626Z,8.32
2022-07-26T21:39:14.230Z,8.40
2022-07-26T21:41:41.270Z,8.57
2022-07-26T21:44:08.124Z,8.38
2022-07-26T21:46:34.958Z,8.65
2022-07-26T21:49:02.161Z,7.82
2022-07-26T21:51:28.924Z,7.63
2022-07-26T21:53:56.283Z,7.95
2022-07-26T21:56:23.092Z,8.93
2022-07-26T21:58:49.925Z,8.65
2022-07-26T22:01:17.165Z,7.63
2022-07-26T22:03:44.025Z,7.53
2022-07-26T22:06:11.441Z,8.38
2022-07-26T22:08:38.435Z,9.68
2022-07-26T22:11:05.642Z,9.73
2022-07-26T22:13:32.530Z,11.73
2022-07-26T22:15:59.400Z,13.27
2022-07-26T22:18:26.675Z,14.85
2022-07-26T22:20:54.336Z,14.82
2022-07-26T22:23:30.226Z,14.85
2022-07-26T22:25:59.188Z,14.60
2022-07-26T22:28:26.147Z,15.68
2022-07-26T22:30:53.032Z,14.40
2022-07-26T22:33:19.967Z,14.63
2022-07-26T22:35:47.675Z,14.50
2022-07-26T22:38:14.740Z,14.50
2022-07-26T22:40:42.735Z,14.55
2022-07-26T22:43:10.897Z,15.27
2022-07-26T22:45:38.234Z,15.02
2022-07-26T22:48:05.986Z,17.05
2022-07-26T22:50:33.583Z,14.45
2022-07-26T22:53:03.610Z,15.93
2022-07-26T22:55:30.664Z,16.63
2022-07-26T22:57:57.397Z,15.40
2022-07-26T23:00:24.511Z,15.18
2022-07-26T23:02:51.766Z,15.98
2022-07-26T23:05:19.363Z,15.90
2022-07-26T23:07:48.104Z,15.43
2022-07-26T23:10:16.180Z,13.85
2022-07-26T23:12:43.168Z,14.15
2022-07-26T23:15:11.081Z,13.70
2022-07-26T23:17:38.396Z,13.57
2022-07-26T23:20:07.371Z,14.13
2022-07-26T23:22:34.379Z,15.07
2022-07-26T23:25:01.183Z,15.35
2022-07-26T23:27:27.990Z,15.75
2022-07-26T23:29:54.862Z,14.73
2022-07-26T23:32:21.758Z,13.63
2022-07-26T23:34:48.594Z,15.25
2022-07-26T23:37:15.432Z,14.73
2022-07-26T23:39:42.440Z,14.77
2022-07-26T23:42:09.199Z,15.52
2022-07-26T23:44:36.224Z,15.90
2022-07-26T23:47:03.181Z,14.68
2022-07-26T23:49:30.147Z,16.55
2022-07-26T23:51:56.995Z,16.27
2022-07-26T23:54:23.715Z,17.90
2022-07-26T23:56:50.524Z,17.00
2022-07-26T23:59:17.477Z,16.05
